Airfield :
LOGIN :

Register | Disclaimer

   EN    FR    IT 

 










Legend :    VFR   Marginal VFR   IFR   Intensive IFR   Very Intensive IFR
Visi :
Ceiling :
>= 8 km
>= 3000ft
5 to 8 km
1000 to 3000 ft
1500m to 5 km
500 to 1000 ft
800 to 1500m
200 to 500 ft
< 800m
< 200 ft
Symbols :   Thunderstorms  Fog  Heavy snow  Heavy precipitations  Wind > 20 kt
SIGMETs :     Misc.  Thunderstorms  Icing  Turbulence  Mountain Waves  Volcanic Ashes






- Airport Elevation : 308 ft
- IATA code : POZ


EPPO - Poznan-Lawica

CURRENT METAR :
  • 092100Z 11008KT 8000 BKN041 01/M00 Q1006

EXPIRED METARs :
  • 092030Z 12007KT 7000 BKN041 01/00 Q1007
  • 092000Z 13006KT 7000 BKN041 01/00 Q1007
  • 091930Z 12007KT 6000 BKN041 01/00 Q1008
  • 091900Z 12007KT 7000 BKN023 01/00 Q1008
  • 091830Z 16006KT 7000 BKN016 01/00 Q1009
  • 091800Z 15007KT 6000 OVC016 01/00 Q1009
  • 091730Z 16005KT 6000 -RA OVC013 01/00 Q1009
  • 091700Z 15008KT 6000 -RA OVC011 01/00 Q1010
  • 091630Z 16005KT 5000 BR OVC011 01/01 Q1010
  • 091600Z 15007KT 5000 -RA BR OVC012 01/01 Q1011

TAF TAF EPPO
Valid from the 09 at 18:00 until the 10 at 18:00 UTC


091730Z 0918/1018 14010KT 6000 OVC011
BECMG 0918/0921 BKN040
PROB40
TEMPO 0918/1004 3500 BR
BECMG 1004/1007 2000 RASN BKN005
TEMPO 1004/1011 FZRA FZDZ BKN003
BECMG 1009/1011 22010KT 4000 -RA BR
TEMPO 1011/1018 2500 RA BKN003



MET'MAP, your aeronautical weather chart ! - Copyright ORBIFLY December 2007 - Disclaimer

ORBIFLY MET'MAP TEAM :

Programming & Development : Alexandra Zaïnal
Original concept : Baudouin d'Aumeries
Technical & hardware support : Manuel Goepfert
Assistance : Marc-Olivier Méhu




SOURCES & CREDITS :

   NOAA